sensor_id;sensor_type;location;lat;lon;timestamp;pressure;altitude;pressure_sealevel;temperature;humidity
70445;BME280;57902;49.638;11.070;2023-09-08T00:00:17;98574.84;;;16.33;93.52
70445;BME280;57902;49.638;11.070;2023-09-08T00:02:54;98573.97;;;16.32;94.17
70445;BME280;57902;49.638;11.070;2023-09-08T00:05:27;98578.50;;;16.29;95.33
70445;BME280;57902;49.638;11.070;2023-09-08T00:08:24;98579.03;;;16.35;94.27
70445;BME280;57902;49.638;11.070;2023-09-08T00:10:59;98573.22;;;16.30;97.74
70445;BME280;57902;49.638;11.070;2023-09-08T00:13:30;98573.31;;;16.29;98.83
70445;BME280;57902;49.638;11.070;2023-09-08T00:16:02;98576.53;;;16.15;99.82
70445;BME280;57902;49.638;11.070;2023-09-08T00:18:38;98577.56;;;16.12;99.30
70445;BME280;57902;49.638;11.070;2023-09-08T00:21:14;98578.38;;;16.13;98.86
70445;BME280;57902;49.638;11.070;2023-09-08T00:23:52;98581.63;;;15.99;97.34
70445;BME280;57902;49.638;11.070;2023-09-08T00:26:26;98577.91;;;15.85;100.00
70445;BME280;57902;49.638;11.070;2023-09-08T00:28:59;98578.31;;;15.76;100.00
70445;BME280;57902;49.638;11.070;2023-09-08T00:31:37;98575.28;;;15.66;100.00
70445;BME280;57902;49.638;11.070;2023-09-08T00:34:12;98566.00;;;15.61;100.00
70445;BME280;57902;49.638;11.070;2023-09-08T00:36:46;98570.38;;;15.60;100.00
70445;BME280;57902;49.638;11.070;2023-09-08T00:39:25;98574.31;;;15.50;100.00
70445;BME280;57902;49.638;11.070;2023-09-08T00:41:52;98569.47;;;15.42;100.00
70445;BME280;57902;49.638;11.070;2023-09-08T00:44:28;98565.31;;;15.38;100.00
70445;BME280;57902;49.638;11.070;2023-09-08T00:47:11;98574.16;;;15.34;100.00
70445;BME280;57902;49.638;11.070;2023-09-08T00:49:51;98564.19;;;15.25;100.00
70445;BME280;57902;49.638;11.070;2023-09-08T00:52:31;98573.84;;;15.21;100.00
70445;BME280;57902;49.638;11.070;2023-09-08T00:55:07;98565.28;;;15.19;100.00
70445;BME280;57902;49.638;11.070;2023-09-08T00:57:57;98564.44;;;15.18;100.00
70445;BME280;57902;49.638;11.070;2023-09-08T01:01:18;98575.13;;;15.12;100.00
70445;BME280;57902;49.638;11.070;2023-09-08T01:07:18;98577.44;;;14.98;100.00
70445;BME280;57902;49.638;11.070;2023-09-08T01:10:22;98572.41;;;14.95;100.00
70445;BME280;57902;49.638;11.070;2023-09-08T01:16:47;98572.84;;;14.84;100.00
70445;BME280;57902;49.638;11.070;2023-09-08T01:19:48;98574.59;;;14.83;100.00
70445;BME280;57902;49.638;11.070;2023-09-08T01:26:48;98583.13;;;14.65;100.00
70445;BME280;57902;49.638;11.070;2023-09-08T01:30:05;98579.06;;;14.58;100.00
70445;BME280;57902;49.638;11.070;2023-09-08T01:33:25;98583.69;;;14.51;100.00
70445;BME280;57902;49.638;11.070;2023-09-08T01:50:26;98571.00;;;14.23;100.00
70445;BME280;57902;49.638;11.070;2023-09-08T01:53:22;98574.50;;;14.22;100.00
70445;BME280;57902;49.638;11.070;2023-09-08T01:56:07;98572.66;;;14.24;100.00
70445;BME280;57902;49.638;11.070;2023-09-08T02:01:44;98570.31;;;14.17;100.00
70445;BME280;57902;49.638;11.070;2023-09-08T02:04:40;98563.69;;;14.10;100.00
70445;BME280;57902;49.638;11.070;2023-09-08T02:07:32;98565.63;;;14.05;100.00
70445;BME280;57902;49.638;11.070;2023-09-08T02:10:38;98565.72;;;14.02;100.00
70445;BME280;57902;49.638;11.070;2023-09-08T02:13:10;98565.72;;;14.02;100.00
70445;BME280;57902;49.638;11.070;2023-09-08T02:16:15;98571.22;;;13.94;100.00
70445;BME280;57902;49.638;11.070;2023-09-08T02:19:20;98567.91;;;13.91;100.00
70445;BME280;57902;49.638;11.070;2023-09-08T02:22:12;98566.34;;;13.87;100.00
70445;BME280;57902;49.638;11.070;2023-09-08T02:24:59;98570.97;;;13.78;100.00
70445;BME280;57902;49.638;11.070;2023-09-08T02:28:01;98570.06;;;13.79;100.00
70445;BME280;57902;49.638;11.070;2023-09-08T02:31:02;98577.25;;;13.73;100.00
70445;BME280;57902;49.638;11.070;2023-09-08T02:51:55;98573.50;;;13.56;100.00
70445;BME280;57902;49.638;11.070;2023-09-08T03:01:19;98579.28;;;13.41;100.00
70445;BME280;57902;49.638;11.070;2023-09-08T03:04:01;98580.00;;;13.44;100.00
70445;BME280;57902;49.638;11.070;2023-09-08T03:06:46;98579.34;;;13.39;100.00
70445;BME280;57902;49.638;11.070;2023-09-08T03:17:37;98565.88;;;13.28;100.00
70445;BME280;57902;49.638;11.070;2023-09-08T03:20:38;98578.94;;;13.25;100.00
70445;BME280;57902;49.638;11.070;2023-09-08T03:27:10;98568.81;;;13.19;100.00
70445;BME280;57902;49.638;11.070;2023-09-08T03:29:58;98566.41;;;13.14;100.00
70445;BME280;57902;49.638;11.070;2023-09-08T03:32:44;98564.66;;;13.15;100.00
70445;BME280;57902;49.638;11.070;2023-09-08T03:35:35;98568.06;;;13.15;100.00
70445;BME280;57902;49.638;11.070;2023-09-08T03:38:45;98566.41;;;13.14;100.00
70445;BME280;57902;49.638;11.070;2023-09-08T03:41:36;98569.00;;;13.14;100.00
70445;BME280;57902;49.638;11.070;2023-09-08T03:44:25;98570.03;;;13.08;100.00
70445;BME280;57902;49.638;11.070;2023-09-08T03:46:58;98564.16;;;13.03;100.00
70445;BME280;57902;49.638;11.070;2023-09-08T03:50:06;98560.06;;;12.98;100.00
70445;BME280;57902;49.638;11.070;2023-09-08T03:53:03;98561.03;;;12.95;100.00
70445;BME280;57902;49.638;11.070;2023-09-08T03:55:45;98561.25;;;12.87;100.00
70445;BME280;57902;49.638;11.070;2023-09-08T03:58:28;98561.22;;;12.89;100.00
70445;BME280;57902;49.638;11.070;2023-09-08T04:01:30;98562.13;;;12.88;100.00
70445;BME280;57902;49.638;11.070;2023-09-08T04:04:07;98564.81;;;12.85;100.00
70445;BME280;57902;49.638;11.070;2023-09-08T04:06:38;98558.91;;;12.81;100.00
70445;BME280;57902;49.638;11.070;2023-09-08T04:09:18;98569.28;;;12.80;100.00
70445;BME280;57902;49.638;11.070;2023-09-08T04:11:56;98564.41;;;12.72;100.00
70445;BME280;57902;49.638;11.070;2023-09-08T04:14:37;98575.78;;;12.66;100.00
70445;BME280;57902;49.638;11.070;2023-09-08T04:17:14;98571.72;;;12.59;100.00
70445;BME280;57902;49.638;11.070;2023-09-08T04:20:06;98577.00;;;12.56;100.00
70445;BME280;57902;49.638;11.070;2023-09-08T04:22:54;98584.63;;;12.59;100.00
70445;BME280;57902;49.638;11.070;2023-09-08T04:25:57;98581.28;;;12.57;100.00
70445;BME280;57902;49.638;11.070;2023-09-08T04:28:33;98574.41;;;12.56;100.00
70445;BME280;57902;49.638;11.070;2023-09-08T04:31:11;98571.81;;;12.56;100.00
70445;BME280;57902;49.638;11.070;2023-09-08T04:34:01;98582.25;;;12.53;100.00
70445;BME280;57902;49.638;11.070;2023-09-08T04:36:50;98582.31;;;12.51;100.00
70445;BME280;57902;49.638;11.070;2023-09-08T04:39:26;98581.44;;;12.51;100.00
70445;BME280;57902;49.638;11.070;2023-09-08T04:41:58;98576.22;;;12.52;100.00
70445;BME280;57902;49.638;11.070;2023-09-08T04:44:42;98577.88;;;12.55;100.00
70445;BME280;57902;49.638;11.070;2023-09-08T04:47:19;98581.28;;;12.57;100.00
70445;BME280;57902;49.638;11.070;2023-09-08T04:49:59;98574.41;;;12.56;100.00
70445;BME280;57902;49.638;11.070;2023-09-08T04:52:52;98571.03;;;12.54;100.00
70445;BME280;57902;49.638;11.070;2023-09-08T04:55:19;98579.47;;;12.59;100.00
70445;BME280;57902;49.638;11.070;2023-09-08T04:58:01;98578.47;;;12.63;100.00
70445;BME280;57902;49.638;11.070;2023-09-08T05:00:30;98581.16;;;12.60;100.00
70445;BME280;57902;49.638;11.070;2023-09-08T05:03:05;98577.72;;;12.59;100.00
70445;BME280;57902;49.638;11.070;2023-09-08T05:05:35;98578.53;;;12.62;100.00
70445;BME280;57902;49.638;11.070;2023-09-08T05:08:02;98584.53;;;12.62;100.00
70445;BME280;57902;49.638;11.070;2023-09-08T05:10:28;98583.59;;;12.65;100.00
70445;BME280;57902;49.638;11.070;2023-09-08T05:12:54;98586.13;;;12.66;100.00
70445;BME280;57902;49.638;11.070;2023-09-08T05:15:21;98575.31;;;12.80;100.00
70445;BME280;57902;49.638;11.070;2023-09-08T05:17:50;98575.16;;;13.35;100.00
70445;BME280;57902;49.638;11.070;2023-09-08T05:20:30;98573.34;;;14.07;100.00
70445;BME280;57902;49.638;11.070;2023-09-08T05:22:56;98580.41;;;14.68;100.00
70445;BME280;57902;49.638;11.070;2023-09-08T05:25:36;98585.22;;;15.18;99.36
70445;BME280;57902;49.638;11.070;2023-09-08T05:28:03;98583.66;;;15.73;95.31
70445;BME280;57902;49.638;11.070;2023-09-08T05:30:33;98586.72;;;16.02;91.39
70445;BME280;57902;49.638;11.070;2023-09-08T05:33:06;98592.75;;;16.39;88.78
70445;BME280;57902;49.638;11.070;2023-09-08T05:35:33;98583.31;;;16.90;85.01
70445;BME280;57902;49.638;11.070;2023-09-08T05:38:00;98591.44;;;17.18;82.57
70445;BME280;57902;49.638;11.070;2023-09-08T05:40:26;98597.00;;;17.45;79.79
70445;BME280;57902;49.638;11.070;2023-09-08T05:42:53;98598.69;;;17.46;79.99
70445;BME280;57902;49.638;11.070;2023-09-08T05:45:34;98598.63;;;17.63;81.17
70445;BME280;57902;49.638;11.070;2023-09-08T05:48:37;98600.97;;;17.52;81.95
70445;BME280;57902;49.638;11.070;2023-09-08T05:51:06;98606.75;;;18.07;79.84
70445;BME280;57902;49.638;11.070;2023-09-08T06:00:33;98614.31;;;18.74;75.28
70445;BME280;57902;49.638;11.070;2023-09-08T06:06:56;98602.13;;;19.48;72.48
70445;BME280;57902;49.638;11.070;2023-09-08T06:09:59;98608.19;;;20.19;68.96
70445;BME280;57902;49.638;11.070;2023-09-08T06:13:01;98606.16;;;20.51;67.65
70445;BME280;57902;49.638;11.070;2023-09-08T06:15:44;98609.78;;;20.76;65.84
70445;BME280;57902;49.638;11.070;2023-09-08T06:18:46;98600.81;;;21.19;65.37
70445;BME280;57902;49.638;11.070;2023-09-08T06:21:52;98601.16;;;21.53;61.72
70445;BME280;57902;49.638;11.070;2023-09-08T06:28:38;98599.97;;;22.31;59.78
70445;BME280;57902;49.638;11.070;2023-09-08T10:26:16;98562.22;;;25.93;43.95
70445;BME280;57902;49.638;11.070;2023-09-08T10:30:02;98557.75;;;25.84;44.23
70445;BME280;57902;49.638;11.070;2023-09-08T11:34:55;98520.47;;;26.95;43.06
70445;BME280;57902;49.638;11.070;2023-09-08T11:37:40;98523.78;;;27.06;43.61
70445;BME280;57902;49.638;11.070;2023-09-08T11:40:18;98524.09;;;26.94;42.08
70445;BME280;57902;49.638;11.070;2023-09-08T11:43:13;98521.22;;;26.77;43.34
70445;BME280;57902;49.638;11.070;2023-09-08T11:45:51;98525.56;;;26.68;44.60
70445;BME280;57902;49.638;11.070;2023-09-08T11:48:39;98524.09;;;26.94;42.35
70445;BME280;57902;49.638;11.070;2023-09-08T11:51:36;98525.25;;;26.81;42.08
70445;BME280;57902;49.638;11.070;2023-09-08T11:54:06;98522.19;;;26.66;43.29
70445;BME280;57902;49.638;11.070;2023-09-08T11:56:51;98516.38;;;26.73;43.27
70445;BME280;57902;49.638;11.070;2023-09-08T11:59:19;98516.88;;;26.86;43.08
70445;BME280;57902;49.638;11.070;2023-09-08T12:01:49;98520.06;;;26.89;44.17
70445;BME280;57902;49.638;11.070;2023-09-08T12:04:35;98514.06;;;26.97;43.16
70445;BME280;57902;49.638;11.070;2023-09-08T12:07:02;98507.63;;;27.00;43.28
70445;BME280;57902;49.638;11.070;2023-09-08T12:09:28;98511.59;;;26.76;42.97
70445;BME280;57902;49.638;11.070;2023-09-08T12:11:55;98509.63;;;26.88;43.28
70445;BME280;57902;49.638;11.070;2023-09-08T12:14:21;98509.25;;;26.83;42.38
70445;BME280;57902;49.638;11.070;2023-09-08T12:16:48;98510.63;;;26.87;43.49
70445;BME280;57902;49.638;11.070;2023-09-08T12:19:30;98502.34;;;27.00;43.59
70445;BME280;57902;49.638;11.070;2023-09-08T12:22:02;98502.41;;;26.90;43.10
70445;BME280;57902;49.638;11.070;2023-09-08T12:24:49;98505.09;;;27.18;41.72
70445;BME280;57902;49.638;11.070;2023-09-08T12:27:19;98500.06;;;27.15;41.75
70445;BME280;57902;49.638;11.070;2023-09-08T12:29:55;98492.94;;;26.87;42.53
70445;BME280;57902;49.638;11.070;2023-09-08T12:32:23;98495.75;;;26.76;42.82
70445;BME280;57902;49.638;11.070;2023-09-08T12:34:53;98492.13;;;26.77;42.73
70445;BME280;57902;49.638;11.070;2023-09-08T12:37:34;98495.44;;;26.79;42.25
70445;BME280;57902;49.638;11.070;2023-09-08T12:43:41;98483.72;;;26.92;43.53
70445;BME280;57902;49.638;11.070;2023-09-08T12:46:19;98490.81;;;26.91;42.62
70445;BME280;57902;49.638;11.070;2023-09-08T12:49:17;98480.44;;;26.80;42.22
70445;BME280;57902;49.638;11.070;2023-09-08T12:52:43;98488.41;;;27.08;42.65
70445;BME280;57902;49.638;11.070;2023-09-08T12:59:35;98483.88;;;26.90;42.23
70445;BME280;57902;49.638;11.070;2023-09-08T13:12:54;98478.75;;;26.79;41.81
70445;BME280;57902;49.638;11.070;2023-09-08T13:15:46;98476.78;;;26.81;39.60
70445;BME280;57902;49.638;11.070;2023-09-08T13:18:51;98478.69;;;26.98;39.74
70445;BME280;57902;49.638;11.070;2023-09-08T13:21:35;98470.75;;;27.26;37.42
70445;BME280;57902;49.638;11.070;2023-09-08T13:25:05;98474.63;;;27.04;38.00
70445;BME280;57902;49.638;11.070;2023-09-08T13:27:59;98471.16;;;27.03;38.09
70445;BME280;57902;49.638;11.070;2023-09-08T13:30:48;98470.59;;;27.00;36.46
70445;BME280;57902;49.638;11.070;2023-09-08T13:33:32;98464.88;;;27.04;38.00
70445;BME280;57902;49.638;11.070;2023-09-08T13:36:18;98475.38;;;26.96;36.70
70445;BME280;57902;49.638;11.070;2023-09-08T13:39:09;98462.22;;;27.04;36.90
70445;BME280;57902;49.638;11.070;2023-09-08T13:45:31;98461.44;;;26.94;36.46
70445;BME280;57902;49.638;11.070;2023-09-08T13:48:24;98455.34;;;26.84;35.56
70445;BME280;57902;49.638;11.070;2023-09-08T13:51:15;98457.97;;;26.94;35.58
70445;BME280;57902;49.638;11.070;2023-09-08T13:53:55;98448.00;;;26.78;36.74
70445;BME280;57902;49.638;11.070;2023-09-08T13:56:57;98458.13;;;26.82;37.46
70445;BME280;57902;49.638;11.070;2023-09-08T13:59:34;98449.22;;;26.83;36.23
70445;BME280;57902;49.638;11.070;2023-09-08T14:02:09;98446.94;;;26.98;36.22
70445;BME280;57902;49.638;11.070;2023-09-08T14:04:47;98451.59;;;27.14;36.95
70445;BME280;57902;49.638;11.070;2023-09-08T14:07:26;98444.44;;;26.97;36.23
70445;BME280;57902;49.638;11.070;2023-09-08T14:17:38;98440.00;;;26.97;37.34
70445;BME280;57902;49.638;11.070;2023-09-08T14:20:23;98440.13;;;26.68;36.32
70445;BME280;57902;49.638;11.070;2023-09-08T14:23:24;98436.72;;;26.66;37.02
70445;BME280;57902;49.638;11.070;2023-09-08T14:36:45;98432.41;;;26.75;36.27
70445;BME280;57902;49.638;11.070;2023-09-08T14:42:59;98422.59;;;26.95;36.86
70445;BME280;57902;49.638;11.070;2023-09-08T14:53:14;98422.03;;;26.91;37.39
70445;BME280;57902;49.638;11.070;2023-09-08T14:56:52;98422.25;;;26.80;37.14
70445;BME280;57902;49.638;11.070;2023-09-08T14:59:39;98419.59;;;26.80;37.74
70445;BME280;57902;49.638;11.070;2023-09-08T15:02:51;98413.28;;;26.91;39.03
70445;BME280;57902;49.638;11.070;2023-09-08T15:08:50;98423.41;;;26.95;37.23
70445;BME280;57902;49.638;11.070;2023-09-08T15:19:49;98412.38;;;26.72;36.21
70445;BME280;57902;49.638;11.070;2023-09-08T15:23:01;98404.41;;;26.82;37.07
70445;BME280;57902;49.638;11.070;2023-09-08T15:25:59;98408.31;;;26.78;38.02
70445;BME280;57902;49.638;11.070;2023-09-08T15:28:51;98410.38;;;26.84;36.81
70445;BME280;57902;49.638;11.070;2023-09-08T15:46:19;98402.25;;;26.67;37.95
70445;BME280;57902;49.638;11.070;2023-09-08T15:56:53;98401.25;;;26.78;38.44
70445;BME280;57902;49.638;11.070;2023-09-08T15:59:34;98397.50;;;26.61;38.61
70445;BME280;57902;49.638;11.070;2023-09-08T16:06:54;98399.84;;;26.64;38.81
70445;BME280;57902;49.638;11.070;2023-09-08T16:21:09;98392.25;;;26.51;38.96
70445;BME280;57902;49.638;11.070;2023-09-08T16:28:23;98395.38;;;26.37;40.58
70445;BME280;57902;49.638;11.070;2023-09-08T17:07:55;98396.03;;;24.81;51.40
70445;BME280;57902;49.638;11.070;2023-09-08T17:22:30;98410.13;;;23.97;54.75
70445;BME280;57902;49.638;11.070;2023-09-08T17:25:27;98407.94;;;23.70;58.02
70445;BME280;57902;49.638;11.070;2023-09-08T17:28:33;98403.47;;;23.49;58.74
70445;BME280;57902;49.638;11.070;2023-09-08T17:34:58;98404.97;;;23.08;59.90
70445;BME280;57902;49.638;11.070;2023-09-08T17:38:09;98403.91;;;22.88;59.88
70445;BME280;57902;49.638;11.070;2023-09-08T17:41:24;98406.91;;;22.72;59.95
70445;BME280;57902;49.638;11.070;2023-09-08T17:44:55;98404.72;;;22.54;59.02
70445;BME280;57902;49.638;11.070;2023-09-08T17:47:33;98407.75;;;22.26;60.76
70445;BME280;57902;49.638;11.070;2023-09-08T17:50:42;98405.78;;;22.05;61.97
70445;BME280;57902;49.638;11.070;2023-09-08T17:56:24;98412.03;;;21.80;62.32
70445;BME280;57902;49.638;11.070;2023-09-08T18:03:01;98414.47;;;21.22;66.27
70445;BME280;57902;49.638;11.070;2023-09-08T18:05:59;98410.00;;;20.98;69.10
70445;BME280;57902;49.638;11.070;2023-09-08T18:08:45;98411.09;;;20.83;69.62
70445;BME280;57902;49.638;11.070;2023-09-08T18:11:24;98414.34;;;20.73;70.13
70445;BME280;57902;49.638;11.070;2023-09-08T18:14:21;98414.44;;;20.59;70.58
70445;BME280;57902;49.638;11.070;2023-09-08T18:17:17;98411.50;;;20.51;71.52
70445;BME280;57902;49.638;11.070;2023-09-08T18:19:55;98413.59;;;20.45;72.22
70445;BME280;57902;49.638;11.070;2023-09-08T18:22:51;98410.03;;;20.46;72.51
70445;BME280;57902;49.638;11.070;2023-09-08T18:25:59;98418.19;;;20.42;72.81
70445;BME280;57902;49.638;11.070;2023-09-08T18:28:42;98417.56;;;20.38;71.35
70445;BME280;57902;49.638;11.070;2023-09-08T18:31:57;98418.22;;;20.29;74.75
70445;BME280;57902;49.638;11.070;2023-09-08T18:39:11;98416.47;;;20.02;76.49
70445;BME280;57902;49.638;11.070;2023-09-08T18:45:59;98423.06;;;19.68;78.17
70445;BME280;57902;49.638;11.070;2023-09-08T18:48:56;98426.56;;;19.54;78.94
70445;BME280;57902;49.638;11.070;2023-09-08T18:55:23;98428.66;;;19.34;81.60
70445;BME280;57902;49.638;11.070;2023-09-08T18:58:38;98428.31;;;19.26;82.42
70445;BME280;57902;49.638;11.070;2023-09-08T19:01:54;98427.00;;;19.19;82.50
70445;BME280;57902;49.638;11.070;2023-09-08T19:04:32;98422.94;;;19.15;83.41
70445;BME280;57902;49.638;11.070;2023-09-08T19:15:07;98428.75;;;18.91;85.16
70445;BME280;57902;49.638;11.070;2023-09-08T19:18:12;98425.63;;;18.84;84.78
70445;BME280;57902;49.638;11.070;2023-09-08T19:24:51;98423.09;;;18.54;85.89
70445;BME280;57902;49.638;11.070;2023-09-08T19:27:52;98419.00;;;18.50;86.08
70445;BME280;57902;49.638;11.070;2023-09-08T19:31:28;98417.50;;;18.46;84.47
70445;BME280;57902;49.638;11.070;2023-09-08T19:35:01;98424.56;;;18.44;84.87
70445;BME280;57902;49.638;11.070;2023-09-08T19:38:01;98420.38;;;18.27;86.47
70445;BME280;57902;49.638;11.070;2023-09-08T20:11:51;98438.03;;;17.45;92.53
70445;BME280;57902;49.638;11.070;2023-09-08T20:14:18;98442.22;;;17.47;92.09
70445;BME280;57902;49.638;11.070;2023-09-08T20:16:44;98441.72;;;17.41;91.12
70445;BME280;57902;49.638;11.070;2023-09-08T20:19:11;98443.56;;;17.39;90.26
70445;BME280;57902;49.638;11.070;2023-09-08T20:21:38;98442.81;;;17.37;91.65
70445;BME280;57902;49.638;11.070;2023-09-08T20:24:05;98444.66;;;17.35;92.05
70445;BME280;57902;49.638;11.070;2023-09-08T20:26:32;98432.91;;;17.27;91.62
70445;BME280;57902;49.638;11.070;2023-09-08T20:28:59;98443.81;;;17.18;93.09
70445;BME280;57902;49.638;11.070;2023-09-08T20:31:26;98436.41;;;17.10;95.41
70445;BME280;57902;49.638;11.070;2023-09-08T20:33:53;98445.41;;;17.05;95.37
70445;BME280;57902;49.638;11.070;2023-09-08T20:36:20;98440.28;;;17.03;95.04
70445;BME280;57902;49.638;11.070;2023-09-08T20:38:47;98441.78;;;16.91;93.58
70445;BME280;57902;49.638;11.070;2023-09-08T20:41:13;98443.59;;;16.89;95.55
70445;BME280;57902;49.638;11.070;2023-09-08T20:43:40;98450.81;;;16.84;95.92
70445;BME280;57902;49.638;11.070;2023-09-08T20:46:07;98447.25;;;16.85;95.82
70445;BME280;57902;49.638;11.070;2023-09-08T20:48:35;98447.59;;;16.79;95.66
70445;BME280;57902;49.638;11.070;2023-09-08T20:55:10;98442.25;;;16.65;96.40
70445;BME280;57902;49.638;11.070;2023-09-08T20:58:03;98442.75;;;16.55;93.72
70445;BME280;57902;49.638;11.070;2023-09-08T21:14:56;98447.44;;;16.31;97.54
70445;BME280;57902;49.638;11.070;2023-09-08T21:21:55;98443.06;;;16.14;98.90
70445;BME280;57902;49.638;11.070;2023-09-08T21:25:34;98441.63;;;16.08;99.29
70445;BME280;57902;49.638;11.070;2023-09-08T21:28:01;98443.38;;;16.08;100.00
70445;BME280;57902;49.638;11.070;2023-09-08T21:42:31;98442.97;;;15.81;100.00
70445;BME280;57902;49.638;11.070;2023-09-08T21:49:30;98444.22;;;15.72;100.00
70445;BME280;57902;49.638;11.070;2023-09-08T21:52:54;98443.69;;;15.65;100.00
70445;BME280;57902;49.638;11.070;2023-09-08T21:55:47;98446.56;;;15.59;100.00
70445;BME280;57902;49.638;11.070;2023-09-08T21:58:13;98443.13;;;15.58;100.00
70445;BME280;57902;49.638;11.070;2023-09-08T22:00:40;98444.97;;;15.56;100.00
70445;BME280;57902;49.638;11.070;2023-09-08T22:03:07;98442.63;;;15.50;100.00
70445;BME280;57902;49.638;11.070;2023-09-08T22:05:35;98443.41;;;15.52;100.00
70445;BME280;57902;49.638;11.070;2023-09-08T22:08:02;98449.88;;;15.44;100.00
70445;BME280;57902;49.638;11.070;2023-09-08T22:10:29;98445.00;;;15.37;100.00
70445;BME280;57902;49.638;11.070;2023-09-08T22:12:56;98449.31;;;15.37;100.00
70445;BME280;57902;49.638;11.070;2023-09-08T22:15:22;98439.22;;;15.31;100.00
70445;BME280;57902;49.638;11.070;2023-09-08T22:17:49;98440.34;;;15.25;100.00
70445;BME280;57902;49.638;11.070;2023-09-08T22:20:17;98439.38;;;15.28;100.00
70445;BME280;57902;49.638;11.070;2023-09-08T22:22:44;98436.84;;;15.26;100.00
70445;BME280;57902;49.638;11.070;2023-09-08T22:25:27;98435.22;;;15.23;100.00
70445;BME280;57902;49.638;11.070;2023-09-08T22:29:05;98438.94;;;15.18;100.00
70445;BME280;57902;49.638;11.070;2023-09-08T22:32:33;98431.22;;;15.16;100.00
70445;BME280;57902;49.638;11.070;2023-09-08T22:35:35;98436.56;;;15.13;100.00
70445;BME280;57902;49.638;11.070;2023-09-08T22:38:16;98428.09;;;15.10;100.00
70445;BME280;57902;49.638;11.070;2023-09-08T22:41:14;98434.25;;;15.07;100.00
70445;BME280;57902;49.638;11.070;2023-09-08T22:44:20;98436.22;;;15.02;100.00
70445;BME280;57902;49.638;11.070;2023-09-08T22:47:11;98428.63;;;14.97;100.00
70445;BME280;57902;49.638;11.070;2023-09-08T22:49:57;98433.25;;;14.91;100.00
70445;BME280;57902;49.638;11.070;2023-09-08T22:52:25;98427.13;;;14.92;100.00
70445;BME280;57902;49.638;11.070;2023-09-08T22:54:52;98429.13;;;14.86;100.00
70445;BME280;57902;49.638;11.070;2023-09-08T22:57:31;98432.75;;;14.82;100.00
70445;BME280;57902;49.638;11.070;2023-09-08T22:59:59;98428.44;;;14.83;100.00
70445;BME280;57902;49.638;11.070;2023-09-08T23:02:26;98430.28;;;14.79;100.00
70445;BME280;57902;49.638;11.070;2023-09-08T23:04:53;98433.88;;;14.77;100.00
70445;BME280;57902;49.638;11.070;2023-09-08T23:07:20;98427.91;;;14.75;100.00
70445;BME280;57902;49.638;11.070;2023-09-08T23:09:46;98431.34;;;14.75;100.00
70445;BME280;57902;49.638;11.070;2023-09-08T23:12:13;98427.25;;;14.69;100.00
70445;BME280;57902;49.638;11.070;2023-09-08T23:14:40;98423.97;;;14.66;100.00
70445;BME280;57902;49.638;11.070;2023-09-08T23:17:19;98420.69;;;14.61;100.00
70445;BME280;57902;49.638;11.070;2023-09-08T23:19:47;98420.13;;;14.54;100.00
70445;BME280;57902;49.638;11.070;2023-09-08T23:22:13;98425.44;;;14.51;100.00
70445;BME280;57902;49.638;11.070;2023-09-08T23:24:40;98417.59;;;14.52;100.00
70445;BME280;57902;49.638;11.070;2023-09-08T23:27:06;98419.28;;;14.53;100.00
70445;BME280;57902;49.638;11.070;2023-09-08T23:29:34;98415.16;;;14.49;100.00
70445;BME280;57902;49.638;11.070;2023-09-08T23:32:01;98418.78;;;14.45;100.00
70445;BME280;57902;49.638;11.070;2023-09-08T23:38:20;98425.13;;;14.38;100.00
